Melmore, Ohio
Current Conditions -  °F | °C
As of 1:44 AM on Tuesday 21 Oct 2014 (Local Time) from KMNN Reporting Station
Haze Haze  
Wind Chill: 47°   Ceiling: 1600
Heat Index: 49°   Visibility: 3mi
Dew Point: 47°   Wind: 6mph
Humidity: 93%   Direction: 280°W
Pressure: 29.88"   Gusts: NA
Location:  41.02°N, 83.11°W
Report Text: KMNN 210544Z AUTO 28005KT 3SM BR BKN016 09/08 A2988 RMK AO2 T00940083 TSNO
Loading
Personal Weather Stations






























Interactive Weather Map
Tropical Storm Tracking
New forecast layout! Learn more

10-Day Weather Forecast

Advertisements
Track Severe Weather on mobile